RJTK(METAR)
02/18 15:00
METAR RJTK 180600Z 25005KT 9999 FEW030 14/03 Q1023 RMK 1CU030 A3021=
戻る
トップページへ戻る
IMOC Co,.Ltd.